Stevens Pass
Stevens Pass Ski Area - Tye Mill Chair, Skyline Chair
Latest observation 08/31 19:00 PDT
| Time (PDT) | Temp °F 5180' | Temp °F 5250' | RH % 5250' | Min mph 5180' | Spd mph 5180' | Gust mph 5180' | Dir ° 5180' |
|---|---|---|---|---|---|---|---|
| 08/31 19:00 | 61 | 60 | 46 | 0 | 6 | 12 | 45 |
| 08/31 18:00 | 62 | 61 | 45 | 0 | 5 | 10 | 47 |
| 08/31 17:00 | 64 | 62 | 44 | 0 | 2 | 10 | 67 |
| 08/31 16:00 | 66 | 62 | 45 | 0 | 2 | 9 | 82 |
| 08/31 15:00 | 65 | 61 | 46 | 0 | 2 | 12 | 67 |
| 08/31 14:00 | 64 | 60 | 50 | 0 | 2 | 8 | 68 |
| 08/31 13:00 | 64 | 58 | 55 | 0 | 2 | 9 | 92 |
| 08/31 12:00 | 62 | 56 | 60 | 0 | 3 | 8 | 101 |
| 08/31 11:00 | 59 | 53 | 65 | 0 | 4 | 8 | 101 |
| 08/31 10:00 | 55 | 50 | 73 | 2 | 5 | 9 | 99 |
| 08/31 09:00 | 53 | 50 | 75 | 5 | 7 | 10 | 101 |
| 08/31 08:00 | 51 | 48 | 77 | 5 | 7 | 9 | 98 |
| 08/31 07:00 | 46 | 51 | 67 | 5 | 7 | 8 | 95 |
| 08/31 06:00 | 46 | 49 | 72 | 4 | 6 | 9 | 103 |
| 08/31 05:00 | 46 | 51 | 66 | 5 | 7 | 9 | 95 |
| 08/31 04:00 | 47 | 51 | 66 | 4 | 6 | 8 | 92 |
| 08/31 03:00 | 48 | 46 | 87 | 0 | 2 | 6 | 155 |
| 08/31 02:00 | 49 | 46 | 85 | 0 | 2 | 5 | 241 |
| 08/31 01:00 | 50 | 45 | 90 | 0 | 3 | 9 | 293 |
| 08/31 00:00 | 44 | 44 | 92 | 1 | 6 | 9 | 288 |
| 08/30 23:00 | 43 | 43 | 93 | 2 | 6 | 10 | 268 |
| 08/30 22:00 | 43 | 44 | 92 | 2 | 8 | 13 | 272 |
| 08/30 21:00 | 44 | 44 | 91 | 1 | 9 | 14 | 277 |
| 08/30 20:00 | 44 | 44 | 92 | 4 | 10 | 15 | 267 |

